Time,TemperatureF,DewpointF,PressureIn,WindDirection,WindDirectionDegrees,WindSpeedMPH,WindSpeedGustMPH,Humidity,HourlyPrecipIn,Conditions,Clouds,dailyrainin,SoftwareType,DateUTC
2013-01-08 00:09:00,27.1,23.2,30.45,ESE,115,0.0,0.0,85,0.00,,,0.00,Wunderground v.1.15,2013-01-08 05:09:00,
2013-01-08 00:19:00,27.0,23.1,30.45,ESE,115,0.0,0.0,85,0.00,,,0.00,Wunderground v.1.15,2013-01-08 05:19:00,
2013-01-08 00:30:00,26.9,23.0,30.45,ESE,115,0.0,0.0,85,0.00,,,0.00,Wunderground v.1.15,2013-01-08 05:30:00,
2013-01-08 00:39:00,26.9,23.3,30.45,ESE,114,0.0,0.0,86,0.00,,,0.00,Wunderground v.1.15,2013-01-08 05:39:00,
2013-01-08 00:49:00,26.9,23.3,30.45,ESE,114,0.0,0.0,86,0.00,,,0.00,Wunderground v.1.15,2013-01-08 05:49:00,
2013-01-08 01:00:00,26.9,23.3,30.45,ESE,115,0.0,0.0,86,0.00,,,0.00,Wunderground v.1.15,2013-01-08 06:00:00,
2013-01-08 01:09:00,26.8,23.2,30.46,ESE,114,0.0,0.0,86,0.00,,,0.00,Wunderground v.1.15,2013-01-08 06:09:00,
2013-01-08 01:19:00,26.8,23.2,30.45,ESE,115,0.0,0.0,86,0.00,,,0.00,Wunderground v.1.15,2013-01-08 06:19:00,
2013-01-08 01:30:00,26.7,23.1,30.45,ESE,115,0.0,0.0,86,0.00,,,0.00,Wunderground v.1.15,2013-01-08 06:30:00,
2013-01-08 01:39:00,26.5,22.9,30.45,ESE,115,0.0,0.0,86,0.00,,,0.00,Wunderground v.1.15,2013-01-08 06:39:00,
2013-01-08 01:49:00,26.5,22.9,30.45,ESE,115,0.0,0.0,86,0.00,,,0.00,Wunderground v.1.15,2013-01-08 06:49:00,
2013-01-08 01:59:00,26.3,22.7,30.45,ESE,115,0.0,0.0,86,0.00,,,0.00,Wunderground v.1.15,2013-01-08 06:59:00,
2013-01-08 02:09:00,26.2,22.9,30.45,ESE,115,0.0,0.0,87,0.00,,,0.00,Wunderground v.1.15,2013-01-08 07:09:00,
2013-01-08 02:19:00,26.1,22.8,30.44,ESE,114,0.0,0.0,87,0.00,,,0.00,Wunderground v.1.15,2013-01-08 07:19:00,
2013-01-08 02:30:00,26.0,22.7,30.45,ESE,115,0.0,0.0,87,0.00,,,0.00,Wunderground v.1.15,2013-01-08 07:30:00,
2013-01-08 02:39:00,25.8,22.5,30.45,ESE,114,0.0,0.0,87,0.00,,,0.00,Wunderground v.1.15,2013-01-08 07:39:00,
2013-01-08 02:50:00,25.7,22.4,30.46,ESE,114,0.0,0.0,87,0.00,,,0.00,Wunderground v.1.15,2013-01-08 07:50:00,
2013-01-08 03:00:00,25.6,22.3,30.45,ESE,114,0.0,0.0,87,0.00,,,0.00,Wunderground v.1.15,2013-01-08 08:00:00,
2013-01-08 03:09:00,25.4,22.1,30.45,ESE,114,0.0,0.0,87,0.00,,,0.00,Wunderground v.1.15,2013-01-08 08:09:00,
2013-01-08 03:20:00,25.3,22.0,30.45,ESE,115,0.0,0.0,87,0.00,,,0.00,Wunderground v.1.15,2013-01-08 08:20:00,
2013-01-08 03:29:00,25.2,21.9,30.44,ESE,115,0.0,0.0,87,0.00,,,0.00,Wunderground v.1.15,2013-01-08 08:29:00,
2013-01-08 03:39:00,25.0,21.9,30.45,ESE,115,0.0,0.0,88,0.00,,,0.00,Wunderground v.1.15,2013-01-08 08:39:00,
2013-01-08 03:50:00,24.9,21.8,30.45,ESE,115,0.0,0.0,88,0.00,,,0.00,Wunderground v.1.15,2013-01-08 08:50:00,
2013-01-08 03:59:00,24.9,21.8,30.44,ESE,114,0.0,0.0,88,0.00,,,0.00,Wunderground v.1.15,2013-01-08 08:59:00,
2013-01-08 04:10:00,24.9,21.8,30.44,ESE,115,0.0,0.0,88,0.00,,,0.00,Wunderground v.1.15,2013-01-08 09:10:00,
2013-01-08 04:20:00,25.0,21.9,30.44,ESE,115,0.0,0.0,88,0.00,,,0.00,Wunderground v.1.15,2013-01-08 09:20:00,
2013-01-08 04:29:00,25.1,22.0,30.43,ESE,115,0.0,0.0,88,0.00,,,0.00,Wunderground v.1.15,2013-01-08 09:29:00,
2013-01-08 04:40:00,25.4,22.6,30.42,ESE,114,0.0,0.0,89,0.00,,,0.00,Wunderground v.1.15,2013-01-08 09:40:00,
2013-01-08 04:50:00,25.5,22.4,30.43,ESE,114,0.0,0.0,88,0.00,,,0.00,Wunderground v.1.15,2013-01-08 09:50:00,
2013-01-08 04:59:00,25.6,22.8,30.44,ESE,121,0.0,0.0,89,0.00,,,0.00,Wunderground v.1.15,2013-01-08 09:59:00,
2013-01-08 05:10:00,25.8,23.0,30.44,ESE,121,0.0,0.0,89,0.00,,,0.00,Wunderground v.1.15,2013-01-08 10:10:00,
2013-01-08 05:19:00,26.2,23.4,30.44,ESE,121,0.0,0.0,89,0.00,,,0.00,Wunderground v.1.15,2013-01-08 10:19:00,
2013-01-08 05:29:00,26.6,23.8,30.44,ESE,121,0.0,0.0,89,0.00,,,0.00,Wunderground v.1.15,2013-01-08 10:29:00,
2013-01-08 05:40:00,27.1,24.3,30.44,ESE,121,0.0,0.0,89,0.00,,,0.00,Wunderground v.1.15,2013-01-08 10:40:00,
2013-01-08 05:49:00,27.5,24.7,30.44,ESE,121,0.0,0.0,89,0.00,,,0.00,Wunderground v.1.15,2013-01-08 10:49:00,
2013-01-08 05:59:00,28.0,25.2,30.44,ESE,121,0.0,0.0,89,0.00,,,0.00,Wunderground v.1.15,2013-01-08 10:59:00,
2013-01-08 06:10:00,28.4,25.6,30.45,ESE,121,0.0,0.0,89,0.00,,,0.00,Wunderground v.1.15,2013-01-08 11:10:00,
2013-01-08 06:19:00,28.7,25.9,30.45,ESE,121,0.0,0.0,89,0.00,,,0.00,Wunderground v.1.15,2013-01-08 11:19:00,
2013-01-08 06:29:00,29.0,26.2,30.43,ESE,121,0.0,0.0,89,0.00,,,0.00,Wunderground v.1.15,2013-01-08 11:29:00,
2013-01-08 06:40:00,29.3,26.5,30.43,ESE,121,0.0,0.0,89,0.00,,,0.00,Wunderground v.1.15,2013-01-08 11:40:00,
2013-01-08 06:49:00,29.3,26.5,30.44,ESE,121,0.0,0.0,89,0.00,,,0.00,Wunderground v.1.15,2013-01-08 11:49:00,
2013-01-08 06:59:00,29.3,26.5,30.44,ESE,121,0.0,0.0,89,0.00,,,0.00,Wunderground v.1.15,2013-01-08 11:59:00,
2013-01-08 07:10:00,29.6,26.8,30.44,ESE,121,0.0,0.0,89,0.00,,,0.00,Wunderground v.1.15,2013-01-08 12:10:00,
2013-01-08 07:20:00,29.9,27.1,30.45,ESE,121,0.0,0.0,89,0.00,,,0.00,Wunderground v.1.15,2013-01-08 12:20:00,
2013-01-08 07:29:00,30.2,27.3,30.45,ESE,121,0.0,0.0,89,0.00,,,0.00,Wunderground v.1.15,2013-01-08 12:29:00,
2013-01-08 07:39:00,30.5,27.6,30.46,ESE,121,0.0,0.0,89,0.00,,,0.00,Wunderground v.1.15,2013-01-08 12:39:00,
2013-01-08 07:50:00,30.8,28.2,30.45,ESE,121,0.0,0.0,90,0.00,,,0.00,Wunderground v.1.15,2013-01-08 12:50:00,
2013-01-08 07:59:00,31.2,28.3,30.46,ESE,121,0.0,0.0,89,0.00,,,0.00,Wunderground v.1.15,2013-01-08 12:59:00,
2013-01-08 08:09:00,31.4,28.5,30.47,ESE,121,0.0,0.0,89,0.00,,,0.00,Wunderground v.1.15,2013-01-08 13:09:00,
2013-01-08 08:20:00,31.7,28.8,30.47,ESE,121,0.0,0.0,89,0.00,,,0.00,Wunderground v.1.15,2013-01-08 13:20:00,
2013-01-08 08:29:00,32.2,29.6,30.48,ESE,122,0.0,0.0,90,0.00,,,0.00,Wunderground v.1.15,2013-01-08 13:29:00,
2013-01-08 08:40:00,32.5,29.9,30.48,ESE,122,0.0,0.0,90,0.00,,,0.00,Wunderground v.1.15,2013-01-08 13:40:00,
2013-01-08 08:49:00,32.9,30.3,30.49,ESE,122,0.0,0.0,90,0.00,,,0.00,Wunderground v.1.15,2013-01-08 13:49:00,
2013-01-08 08:59:00,33.4,30.8,30.49,ESE,122,0.0,0.0,90,0.00,,,0.00,Wunderground v.1.15,2013-01-08 13:59:00,
2013-01-08 09:10:00,33.7,31.1,30.48,ESE,122,0.0,0.0,90,0.00,,,0.00,Wunderground v.1.15,2013-01-08 14:10:00,
2013-01-08 09:19:00,34.2,31.6,30.49,ESE,122,0.0,0.0,90,0.00,,,0.00,Wunderground v.1.15,2013-01-08 14:19:00,
2013-01-08 09:29:00,34.4,31.5,30.50,ESE,122,0.0,0.0,89,0.00,,,0.00,Wunderground v.1.15,2013-01-08 14:29:00,
2013-01-08 09:40:00,34.6,31.7,30.49,ESE,122,0.0,0.0,89,0.00,,,0.00,Wunderground v.1.15,2013-01-08 14:40:00,
2013-01-08 09:49:00,35.0,32.4,30.49,ESE,122,0.0,0.0,90,0.00,,,0.00,Wunderground v.1.15,2013-01-08 14:49:00,
2013-01-08 09:59:00,35.7,33.1,30.50,ESE,122,0.0,0.0,90,0.00,,,0.00,Wunderground v.1.15,2013-01-08 14:59:00,
2013-01-08 10:10:00,36.4,33.5,30.50,ESE,122,0.0,0.0,89,0.00,,,0.00,Wunderground v.1.15,2013-01-08 15:10:00,
2013-01-08 10:19:00,37.0,34.1,30.50,ESE,122,0.0,0.0,89,0.00,,,0.00,Wunderground v.1.15,2013-01-08 15:19:00,
2013-01-08 10:30:00,37.7,34.8,30.50,ESE,122,0.0,0.0,89,0.00,,,0.00,Wunderground v.1.15,2013-01-08 15:30:00,
2013-01-08 10:40:00,38.4,35.4,30.49,SE,130,0.0,0.0,89,0.00,,,0.00,Wunderground v.1.15,2013-01-08 15:40:00,
2013-01-08 10:49:00,39.0,35.7,30.49,SE,130,0.0,0.0,88,0.00,,,0.00,Wunderground v.1.15,2013-01-08 15:49:00,
2013-01-08 10:59:00,39.5,36.2,30.49,SE,130,0.0,0.0,88,0.00,,,0.00,Wunderground v.1.15,2013-01-08 15:59:00,
2013-01-08 11:10:00,40.2,36.6,30.48,SE,130,0.0,0.0,87,0.00,,,0.00,Wunderground v.1.15,2013-01-08 16:10:00,
2013-01-08 11:19:00,40.8,36.3,30.48,SE,130,0.0,0.0,84,0.00,,,0.00,Wunderground v.1.15,2013-01-08 16:19:00,
2013-01-08 11:29:00,41.1,36.3,30.48,SE,130,0.0,0.0,83,0.00,,,0.00,Wunderground v.1.15,2013-01-08 16:29:00,
2013-01-08 11:40:00,41.6,36.8,30.48,SE,130,0.0,0.0,83,0.00,,,0.00,Wunderground v.1.15,2013-01-08 16:40:00,
2013-01-08 11:49:00,42.4,37.3,30.47,SE,130,0.0,0.0,82,0.00,,,0.00,Wunderground v.1.15,2013-01-08 16:49:00,
2013-01-08 12:00:00,43.1,37.7,30.47,SE,130,0.0,0.0,81,0.00,,,0.00,Wunderground v.1.15,2013-01-08 17:00:00,
2013-01-08 12:10:00,43.7,37.6,30.46,SE,130,0.0,0.0,79,0.00,,,0.00,Wunderground v.1.15,2013-01-08 17:10:00,
2013-01-08 12:19:00,44.6,38.5,30.45,SE,130,0.0,0.0,79,0.00,,,0.00,Wunderground v.1.15,2013-01-08 17:19:00,
2013-01-08 12:29:00,45.4,38.3,30.45,SE,129,0.0,1.0,76,0.00,,,0.00,Wunderground v.1.15,2013-01-08 17:29:00,
2013-01-08 12:39:00,46.5,38.7,30.44,SE,128,0.0,0.0,74,0.00,,,0.00,Wunderground v.1.15,2013-01-08 17:39:00,
2013-01-08 12:49:00,48.0,39.8,30.43,East,91,0.0,0.0,73,0.00,,,0.00,Wunderground v.1.15,2013-01-08 17:49:00,
2013-01-08 13:00:00,49.5,40.1,30.43,NE,55,0.0,3.0,70,0.00,,,0.00,Wunderground v.1.15,2013-01-08 18:00:00,
2013-01-08 13:09:00,50.0,39.1,30.42,ENE,74,1.0,1.0,66,0.00,,,0.00,Wunderground v.1.15,2013-01-08 18:09:00,
2013-01-08 13:19:00,50.4,39.1,30.42,ESE,110,0.0,1.0,65,0.00,,,0.00,Wunderground v.1.15,2013-01-08 18:19:00,
2013-01-08 13:30:00,51.1,39.3,30.42,SE,144,1.0,1.0,64,0.00,,,0.00,Wunderground v.1.15,2013-01-08 18:30:00,
2013-01-08 13:39:00,51.5,40.1,30.41,SE,144,0.0,0.0,65,0.00,,,0.00,Wunderground v.1.15,2013-01-08 18:39:00,
2013-01-08 13:49:00,52.1,39.5,30.41,SE,132,1.0,1.0,62,0.00,,,0.00,Wunderground v.1.15,2013-01-08 18:49:00,
2013-01-08 14:00:00,52.0,39.8,30.41,SE,131,0.0,0.0,63,0.00,,,0.00,Wunderground v.1.15,2013-01-08 19:00:00,
2013-01-08 14:10:00,52.7,40.5,30.41,East,96,0.0,0.0,63,0.00,,,0.00,Wunderground v.1.15,2013-01-08 19:10:00,
2013-01-08 14:19:00,53.1,40.4,30.40,South,179,1.0,1.0,62,0.00,,,0.00,Wunderground v.1.15,2013-01-08 19:19:00,
2013-01-08 14:29:00,53.2,40.5,30.40,South,178,0.0,0.0,62,0.00,,,0.00,Wunderground v.1.15,2013-01-08 19:29:00,
2013-01-08 14:39:00,53.3,40.6,30.40,South,178,0.0,0.0,62,0.00,,,0.00,Wunderground v.1.15,2013-01-08 19:39:00,
2013-01-08 14:50:00,53.5,40.8,30.40,South,178,0.0,0.0,62,0.00,,,0.00,Wunderground v.1.15,2013-01-08 19:50:00,
2013-01-08 14:59:00,53.6,40.5,30.40,South,178,0.0,0.0,61,0.00,,,0.00,Wunderground v.1.15,2013-01-08 19:59:00,
2013-01-08 15:10:00,53.4,40.3,30.40,South,190,1.0,1.0,61,0.00,,,0.00,Wunderground v.1.15,2013-01-08 20:10:00,
2013-01-08 15:19:00,53.4,39.9,30.40,East,101,0.0,0.0,60,0.00,,,0.00,Wunderground v.1.15,2013-01-08 20:19:00,
2013-01-08 15:29:00,53.5,39.9,30.39,East,101,0.0,0.0,60,0.00,,,0.00,Wunderground v.1.15,2013-01-08 20:29:00,
2013-01-08 15:39:00,53.6,40.5,30.40,East,101,0.0,0.0,61,0.00,,,0.00,Wunderground v.1.15,2013-01-08 20:39:00,
2013-01-08 15:49:00,53.5,40.4,30.40,East,101,0.0,0.0,61,0.00,,,0.00,Wunderground v.1.15,2013-01-08 20:49:00,
2013-01-08 16:00:00,53.2,40.5,30.40,East,101,0.0,0.0,62,0.00,,,0.00,Wunderground v.1.15,2013-01-08 21:00:00,
2013-01-08 16:09:00,53.0,40.7,30.40,East,101,0.0,0.0,63,0.00,,,0.00,Wunderground v.1.15,2013-01-08 21:09:00,
2013-01-08 16:19:00,53.2,41.3,30.40,East,101,0.0,0.0,64,0.00,,,0.00,Wunderground v.1.15,2013-01-08 21:19:00,
2013-01-08 16:30:00,53.2,40.9,30.40,East,101,0.0,0.0,63,0.00,,,0.00,Wunderground v.1.15,2013-01-08 21:30:00,
2013-01-08 16:39:00,53.0,40.7,30.41,East,101,0.0,0.0,63,0.00,,,0.00,Wunderground v.1.15,2013-01-08 21:39:00,
2013-01-08 16:49:00,52.4,41.0,30.41,East,101,0.0,0.0,65,0.00,,,0.00,Wunderground v.1.15,2013-01-08 21:49:00,
2013-01-08 17:00:00,51.6,40.6,30.41,East,101,0.0,0.0,66,0.00,,,0.00,Wunderground v.1.15,2013-01-08 22:00:00,
2013-01-08 17:09:00,51.0,40.4,30.42,East,101,0.0,0.0,67,0.00,,,0.00,Wunderground v.1.15,2013-01-08 22:09:00,
2013-01-08 17:19:00,50.2,40.0,30.42,East,101,0.0,0.0,68,0.00,,,0.00,Wunderground v.1.15,2013-01-08 22:19:00,
2013-01-08 17:29:00,49.3,39.9,30.42,East,101,0.0,0.0,70,0.00,,,0.00,Wunderground v.1.15,2013-01-08 22:29:00,
2013-01-08 17:39:00,48.4,39.4,30.42,East,101,0.0,0.0,71,0.00,,,0.00,Wunderground v.1.15,2013-01-08 22:39:00,
2013-01-08 17:50:00,47.5,38.9,30.42,East,101,0.0,0.0,72,0.00,,,0.00,Wunderground v.1.15,2013-01-08 22:50:00,
2013-01-08 17:59:00,46.9,39.0,30.41,East,101,0.0,0.0,74,0.00,,,0.00,Wunderground v.1.15,2013-01-08 22:59:00,
2013-01-08 18:09:00,46.3,38.5,30.41,East,101,0.0,0.0,74,0.00,,,0.00,Wunderground v.1.15,2013-01-08 23:09:00,
2013-01-08 18:20:00,45.7,38.2,30.41,East,101,0.0,0.0,75,0.00,,,0.00,Wunderground v.1.15,2013-01-08 23:20:00,
2013-01-08 18:29:00,45.2,38.1,30.41,East,101,0.0,0.0,76,0.00,,,0.00,Wunderground v.1.15,2013-01-08 23:29:00,
2013-01-08 18:39:00,44.7,37.9,30.42,East,101,0.0,0.0,77,0.00,,,0.00,Wunderground v.1.15,2013-01-08 23:39:00,
2013-01-08 18:50:00,44.0,37.6,30.42,East,101,0.0,0.0,78,0.00,,,0.00,Wunderground v.1.15,2013-01-08 23:50:00,
2013-01-08 18:59:00,43.4,36.7,30.42,East,101,0.0,0.0,77,0.00,,,0.00,Wunderground v.1.15,2013-01-08 23:59:00,
2013-01-08 19:09:00,43.0,37.3,30.42,East,101,0.0,0.0,80,0.00,,,0.00,Wunderground v.1.15,2013-01-09 00:09:00,
2013-01-08 19:19:00,42.9,37.2,30.41,East,101,0.0,0.0,80,0.00,,,0.00,Wunderground v.1.15,2013-01-09 00:19:00,
2013-01-08 19:29:00,42.9,37.2,30.42,East,101,0.0,0.0,80,0.00,,,0.00,Wunderground v.1.15,2013-01-09 00:29:00,
2013-01-08 19:39:00,42.9,37.2,30.42,East,101,0.0,0.0,80,0.00,,,0.00,Wunderground v.1.15,2013-01-09 00:39:00,
2013-01-08 19:49:00,42.9,37.2,30.43,East,101,0.0,0.0,80,0.00,,,0.00,Wunderground v.1.15,2013-01-09 00:49:00,
2013-01-08 20:00:00,42.9,37.2,30.43,East,101,0.0,0.0,80,0.00,,,0.00,Wunderground v.1.15,2013-01-09 01:00:00,
2013-01-08 20:09:00,42.8,37.4,30.42,East,101,0.0,0.0,81,0.00,,,0.00,Wunderground v.1.15,2013-01-09 01:09:00,
2013-01-08 20:20:00,42.9,37.5,30.42,East,101,0.0,0.0,81,0.00,,,0.00,Wunderground v.1.15,2013-01-09 01:20:00,
2013-01-08 20:30:00,42.7,37.3,30.42,East,101,0.0,0.0,81,0.00,,,0.00,Wunderground v.1.15,2013-01-09 01:30:00,
2013-01-08 20:39:00,42.4,37.3,30.42,East,101,0.0,0.0,82,0.00,,,0.00,Wunderground v.1.15,2013-01-09 01:39:00,
2013-01-08 20:50:00,42.2,37.1,30.43,East,101,0.0,1.0,82,0.00,,,0.00,Wunderground v.1.15,2013-01-09 01:50:00,
2013-01-08 21:00:00,42.0,36.9,30.43,East,101,0.0,0.0,82,0.00,,,0.00,Wunderground v.1.15,2013-01-09 02:00:00,
2013-01-08 21:09:00,42.0,36.9,30.43,East,101,0.0,0.0,82,0.00,,,0.00,Wunderground v.1.15,2013-01-09 02:09:00,
2013-01-08 21:19:00,42.0,37.2,30.43,East,101,0.0,0.0,83,0.00,,,0.00,Wunderground v.1.15,2013-01-09 02:19:00,
2013-01-08 21:30:00,42.2,37.7,30.42,East,101,0.0,0.0,84,0.00,,,0.00,Wunderground v.1.15,2013-01-09 02:30:00,
2013-01-08 21:39:00,42.3,37.5,30.43,East,101,0.0,0.0,83,0.00,,,0.00,Wunderground v.1.15,2013-01-09 02:39:00,
2013-01-08 21:49:00,42.3,37.5,30.42,East,101,0.0,0.0,83,0.00,,,0.00,Wunderground v.1.15,2013-01-09 02:49:00,
2013-01-08 22:00:00,42.2,37.4,30.42,East,101,0.0,0.0,83,0.00,,,0.00,Wunderground v.1.15,2013-01-09 03:00:00,
2013-01-08 22:09:00,42.2,37.7,30.42,East,101,0.0,0.0,84,0.00,,,0.00,Wunderground v.1.15,2013-01-09 03:09:00,
2013-01-08 22:19:00,42.2,37.7,30.42,East,101,0.0,0.0,84,0.00,,,0.00,Wunderground v.1.15,2013-01-09 03:19:00,
2013-01-08 22:30:00,42.2,37.7,30.42,East,101,0.0,0.0,84,0.00,,,0.00,Wunderground v.1.15,2013-01-09 03:30:00,
2013-01-08 22:39:00,42.2,37.7,30.42,East,101,0.0,0.0,84,0.00,,,0.00,Wunderground v.1.15,2013-01-09 03:39:00,
2013-01-08 22:50:00,42.3,37.8,30.42,East,101,0.0,0.0,84,0.00,,,0.00,Wunderground v.1.15,2013-01-09 03:50:00,
2013-01-08 23:00:00,42.2,37.7,30.42,East,101,0.0,0.0,84,0.00,,,0.00,Wunderground v.1.15,2013-01-09 04:00:00,
2013-01-08 23:09:00,41.9,37.4,30.42,East,101,0.0,0.0,84,0.00,,,0.00,Wunderground v.1.15,2013-01-09 04:09:00,
2013-01-08 23:20:00,41.8,37.3,30.43,East,101,0.0,0.0,84,0.00,,,0.00,Wunderground v.1.15,2013-01-09 04:20:00,
2013-01-08 23:29:00,41.6,37.1,30.42,East,101,0.0,0.0,84,0.00,,,0.00,Wunderground v.1.15,2013-01-09 04:29:00,
2013-01-08 23:39:00,41.6,37.1,30.42,East,101,0.0,0.0,84,0.00,,,0.00,Wunderground v.1.15,2013-01-09 04:39:00,
2013-01-08 23:50:00,41.5,37.0,30.43,East,101,0.0,0.0,84,0.00,,,0.00,Wunderground v.1.15,2013-01-09 04:50:00,
2013-01-08 23:59:00,41.5,37.3,30.42,East,101,0.0,0.0,85,0.00,,,0.00,Wunderground v.1.15,2013-01-09 04:59:00,